EAU weather

Chippewa Valley Regional Airport
Eau Claire, Wisconsin, United States

Public forecast

Using degrees Fahrenheit for public forecast. Weather courtesy of forecast.io.

Current aviation weather report (METAR) for Chippewa Valley Regional Airport

Retrieved 2020/06/04 01:56 UTC (36 minutes ago):

KEAU 040156Z AUTO 33004KT 10SM CLR 21/09 A2977 RMK AO2 SLP077 T02060089

Aviation forecast (TAF) for Chippewa Valley Regional Airport

Retrieved 2020-06-04 00:36 UTC (2 hours ago):

TAF KEAU 032334Z 0400/0424 31007KT P6SM SCT150 FM041500 22006KT P6SM SCT250